Warning: Javascript must be enabled to use all the features on this page!


Page Loading - Please Wait...

* We've detected you're using a mobile device. Find our Next Generation Station Page here.
Click to hideNews Bulletins

Peak Streamflow for the Nation

USGS 05580950 SUGAR CREEK NEAR BLOOMINGTON, IL

Mclean County, Illinois
Hydrologic Unit Code 07130009
Latitude  40°28'19", Longitude  89°01'41" NAD83
Drainage area 34.4  square miles
Contributing drainage area 34.40  square miles
Gage datum 725.11 feet above NGVD29
Output formats
Table
Graph
Tab-separated file
peakfq (watstore) format
Reselect output format
Water
Year
Date Gage
Height
(feet)
Stream-
flow
(cfs)
1975 1975-06-25 10.40 2,2005,C
1976 1976-06-28 10.47 3,5505,C
1977 1977-09-13 10.36 3,3405,C
1978 1978-07-09 9.89 2,9605,C
1979 1979-03-03 11.04 3,6805,C
1980 1980-06-02 10.10 2,9405,C
1981 1981-08-05 9.23 2,3405,C
1982 1982-04-16 10.20 3,0205,C
1983 1982-12-03 14.02 6,6005,C
1984 1984-05-20 10.52 3,2605,C
1985 1985-02-23 10.66 3,4405,C
1986 1986-09-20 13.63 6,1805,C
1987 1986-10-03 11.29 3,8905,C
1988 1988-01-19 6.39 8975,C
1989 1989-09-01 8.14 1,7105,C
1990 1990-03-10 10.30 3,0905,C
1991 1990-12-29 8.89 2,6805,C
1992 1992-07-19 5.39 1,1805,C
1993 1993-01-04 10.66 3,5705,C
1994 1994-04-12 5.13 1,1305,C
1995 1995-08-03 9.92 2,5505,C
1996 1996-05-28 7.99 1,9505,C
1997 1997-09-08 5.02 1,0605,C
1998 1998-04-29 9.41 2,3905,C
1999 1999-06-13 8.54 2,1205,C
2000 2000-08-23 7.37 1,7605,C
2001 2001-01-29 6.91 1,6205,C
2002 2002-08-23 8.59 2,1305,C
2003 2003-07-10 12.60 4,3805,C
2004 2004-05-30 8.54 2,6005,C
2005 2005-01-12 9.80 3,1305,C
2006 2006-04-16 7.60 2,2205,C
2007 2007-03-30 6.49 1,7905,C
2008 2008-09-14 10.78 3,5505,C
2009 2009-06-01 7.78 2,2905,C
2010 2009-10-29 8.60 2,6205,C
2011 2011-04-22 6.51 1,8005,C
2012 2012-09-01 5.57 1,4605,C
2013 2013-04-18 5.52 1,4405,C
2014 2014-02-20 7.43 2,1505,C
2015 2015-07-08 11.53 3,8905,C
2016 2016-07-24 10.38 3,3805,C
2017 2017-06-17 6.71 1,8805,C
2018 2018-05-30 5.07 1,2905,C
2019 2019-05-01 8.95 2,7705,C
2020 2020-05-17 8.18 2,4505,C
2021 2021-06-26 12.07 4,1405,C
?
  Peak Streamflow Qualification Codes.